Vilna, Canada
Current Conditions -  °F | °C
As of 2:00 PM on Sunday 23 Nov 2014 (Local Time) from CYOD Reporting Station
Few Clouds Few Clouds  
Wind Chill:   Ceiling: Unl
Heat Index: 14°   Visibility: 15mi
Dew Point:   Wind: 7mph
Humidity: 79%   Direction: 210°SSW
Pressure: 29.78"   Gusts: NA
Location:  54.12°N, 111.92°W
Report Text: CYOD 232100Z 21006KT 15SM FEW010 FEW150 M10/M13 A2978 RMKCF1AC0 SLP126
Loading
Personal Weather Stations






























Interactive Weather Map New forecast layout! Learn more

10-Day Weather Forecast

Advertisements
Track Severe Weather on mobile